Bermuda Dunes, California
Current Conditions -  °F | °C
As of 7:52 AM on Sunday 21 Dec 2014 (Local Time) from KTRM Reporting Station
Haze Haze  
Wind Chill: 47°   Ceiling: Unl
Heat Index: 47°   Visibility: 6mi
Dew Point: 43°   Wind: 3mph
Humidity: 86%   Direction: 280°W
Pressure: 30.13"   Gusts: NA
Location:  33.7719°N, 116.279°W
Report Text: KTRM 211552Z AUTO 28003KT 6SM BR CLR 08/06 A3013 RMK AO2 SLP201 T00830061 TSNO
Loading
Personal Weather Stations






























Interactive Weather Map New forecast layout! Learn more

10-Day Weather Forecast

Advertisements
Track Severe Weather on mobile